createdAt,value
2023-05-25T00:01:29.579Z,95690.53
2023-05-25T00:03:56.051Z,95687.56
2023-05-25T00:06:25.308Z,95687.94
2023-05-25T00:08:54.684Z,95696.66
2023-05-25T00:11:22.657Z,95693.97
2023-05-25T00:13:49.154Z,95704.34
2023-05-25T00:16:15.590Z,95699.78
2023-05-25T00:18:42.589Z,95701.97
2023-05-25T00:21:09.122Z,95702.81
2023-05-25T00:23:36.165Z,95696.06
2023-05-25T00:26:03.424Z,95691.72
2023-05-25T00:28:29.792Z,95688.72
2023-05-25T00:30:56.241Z,95685.44
2023-05-25T00:33:22.618Z,95680.53
2023-05-25T00:35:49.339Z,95675.91
2023-05-25T00:38:17.187Z,95672.84
2023-05-25T00:40:44.718Z,95672.63
2023-05-25T00:43:12.461Z,95680.97
2023-05-25T00:45:39.278Z,95675.63
2023-05-25T00:48:06.348Z,95667.47
2023-05-25T00:50:37.508Z,95669.25
2023-05-25T00:53:04.053Z,95664.59
2023-05-25T00:55:33.174Z,95665.22
2023-05-25T00:58:03.402Z,95669.53
2023-05-25T01:00:32.228Z,95668.75
2023-05-25T01:02:59.319Z,95672.84
2023-05-25T01:05:28.389Z,95675.06
2023-05-25T01:07:58.883Z,95681.88
2023-05-25T01:10:26.239Z,95676.47
2023-05-25T01:12:54.767Z,95677.28
2023-05-25T01:15:22.754Z,95680.09
2023-05-25T01:17:53.232Z,95679.88
2023-05-25T01:20:19.919Z,95671.84
2023-05-25T01:22:53.742Z,95669.97
2023-05-25T01:25:24.660Z,95679.72
2023-05-25T01:27:56.991Z,95682.69
2023-05-25T01:30:25.868Z,95668.84
2023-05-25T01:32:53.752Z,95676.09
2023-05-25T01:35:21.167Z,95676.66
2023-05-25T01:37:49.323Z,95676.66
2023-05-25T01:40:15.984Z,95673.94
2023-05-25T01:42:42.348Z,95676.38
2023-05-25T01:45:10.903Z,95683.69
2023-05-25T01:47:53.649Z,95686.69
2023-05-25T01:50:26.392Z,95683.41
2023-05-25T01:52:59.333Z,95689.69
2023-05-25T01:55:28.578Z,95696.56
2023-05-25T01:57:58.668Z,95689.56
2023-05-25T02:00:26.820Z,95682.28
2023-05-25T02:02:54.281Z,95688.25
2023-05-25T02:05:22.056Z,95692.88
2023-05-25T02:07:48.573Z,95689.06
2023-05-25T02:10:15.741Z,95689.63
2023-05-25T02:12:42.114Z,95686.91
2023-05-25T02:15:09.134Z,95688.81
2023-05-25T02:17:36.468Z,95683.13
2023-05-25T02:20:03.964Z,95689.31
2023-05-25T02:22:30.664Z,95685.25
2023-05-25T02:24:57.037Z,95690.09
2023-05-25T02:27:24.109Z,95688.66
2023-05-25T02:29:52.456Z,95674.44
2023-05-25T02:32:18.965Z,95672.69
2023-05-25T02:34:46.206Z,95674.28
2023-05-25T02:37:12.582Z,95676.06
2023-05-25T02:39:39.356Z,95680.09
2023-05-25T02:42:05.917Z,95675.66
2023-05-25T02:44:32.965Z,95664.44
2023-05-25T02:46:59.582Z,95669.59
2023-05-25T02:49:26.029Z,95664.69
2023-05-25T02:51:52.331Z,95657.56
2023-05-25T02:54:18.659Z,95649.63
2023-05-25T02:56:45.052Z,95659.34
2023-05-25T02:59:11.574Z,95657.72
2023-05-25T03:01:40.012Z,95663.03
2023-05-25T03:04:06.380Z,95674.41
2023-05-25T03:06:32.822Z,95671.69
2023-05-25T03:08:59.146Z,95680.88
2023-05-25T03:11:26.169Z,95683.31
2023-05-25T03:13:52.486Z,95684.66
2023-05-25T03:16:18.923Z,95683.56
2023-05-25T03:18:45.913Z,95684.00
2023-05-25T03:21:12.248Z,95678.84
2023-05-25T03:23:38.584Z,95679.59
2023-05-25T03:26:05.070Z,95674.41
2023-05-25T03:28:31.403Z,95678.44
2023-05-25T03:30:57.735Z,95669.53
2023-05-25T03:33:24.099Z,95674.69
2023-05-25T03:35:51.049Z,95681.75
2023-05-25T03:38:17.422Z,95682.75
2023-05-25T03:40:43.760Z,95678.88
2023-05-25T03:43:10.122Z,95678.66
2023-05-25T03:45:36.458Z,95684.31
2023-05-25T03:48:02.884Z,95684.84
2023-05-25T03:50:29.199Z,95682.88
2023-05-25T03:52:56.194Z,95690.19
2023-05-25T03:55:22.535Z,95685.88
2023-05-25T03:57:48.896Z,95693.75
2023-05-25T04:00:16.212Z,95694.31
2023-05-25T04:02:42.662Z,95680.09
2023-05-25T04:05:09.791Z,95693.88
2023-05-25T04:07:36.603Z,95698.50
2023-05-25T04:10:03.869Z,95700.66
2023-05-25T04:12:30.408Z,95703.00
2023-05-25T04:14:56.724Z,95693.38
2023-05-25T04:17:24.418Z,95699.13
2023-05-25T04:19:51.273Z,95715.69
2023-05-25T04:22:18.000Z,95705.31
2023-05-25T04:24:44.691Z,95701.47
2023-05-25T04:27:11.780Z,95704.09
2023-05-25T04:29:38.151Z,95704.34
2023-05-25T04:32:05.451Z,95709.78
2023-05-25T04:34:33.108Z,95699.13
2023-05-25T04:37:04.755Z,95704.91
2023-05-25T04:39:32.071Z,95706.25
2023-05-25T04:41:58.539Z,95698.06
2023-05-25T04:44:29.056Z,95700.47
2023-05-25T04:46:55.458Z,95701.63
2023-05-25T04:49:22.296Z,95700.38
2023-05-25T04:51:48.652Z,95700.78
2023-05-25T04:54:15.102Z,95703.25
2023-05-25T04:56:41.477Z,95693.72
2023-05-25T04:59:07.834Z,95696.97
2023-05-25T05:01:39.872Z,95701.22
2023-05-25T05:04:06.478Z,95713.63
2023-05-25T05:06:33.615Z,95718.03
2023-05-25T05:09:00.528Z,95718.31
2023-05-25T05:11:27.590Z,95724.72
2023-05-25T05:13:54.113Z,95729.38
2023-05-25T05:16:20.523Z,95730.28
2023-05-25T05:18:47.607Z,95726.28
2023-05-25T05:21:14.001Z,95730.09
2023-05-25T05:23:42.502Z,95736.88
2023-05-25T05:26:10.748Z,95733.13
2023-05-25T05:28:37.142Z,95741.81
2023-05-25T05:31:03.642Z,95727.69
2023-05-25T05:33:30.564Z,95736.75
2023-05-25T05:35:57.608Z,95740.84
2023-05-25T05:38:23.981Z,95738.69
2023-05-25T05:40:50.416Z,95738.09
2023-05-25T05:43:16.822Z,95747.75
2023-05-25T05:45:43.561Z,95746.72
2023-05-25T05:48:10.362Z,95749.66
2023-05-25T05:50:36.910Z,95751.28
2023-05-25T05:53:04.390Z,95750.03
2023-05-25T05:55:30.782Z,95745.25
2023-05-25T05:57:57.185Z,95745.97
2023-05-25T06:00:23.942Z,95743.56
2023-05-25T06:02:50.791Z,95748.72
2023-05-25T06:05:17.941Z,95745.28
2023-05-25T06:07:44.631Z,95749.31
2023-05-25T06:10:11.867Z,95755.28
2023-05-25T06:12:38.215Z,95750.97
2023-05-25T06:15:05.710Z,95751.16
2023-05-25T06:17:32.110Z,95755.81
2023-05-25T06:19:58.667Z,95762.38
2023-05-25T06:22:27.229Z,95761.56
2023-05-25T06:24:53.673Z,95758.22
2023-05-25T06:27:22.404Z,95760.28
2023-05-25T06:29:48.722Z,95758.94
2023-05-25T06:32:15.564Z,95772.53
2023-05-25T06:34:42.010Z,95766.75
2023-05-25T06:37:08.455Z,95760.06
2023-05-25T06:39:34.889Z,95761.38
2023-05-25T06:42:01.309Z,95765.84
2023-05-25T06:44:28.381Z,95765.31
2023-05-25T06:46:54.791Z,95767.34
2023-05-25T06:49:21.435Z,95766.31
2023-05-25T06:51:48.312Z,95772.88
2023-05-25T06:54:14.904Z,95774.41
2023-05-25T06:56:41.374Z,95777.25
2023-05-25T06:59:07.762Z,95778.69
2023-05-25T07:01:35.827Z,95779.88
2023-05-25T07:04:02.218Z,95782.28
2023-05-25T07:06:28.598Z,95775.78
2023-05-25T07:08:55.100Z,95776.16
2023-05-25T07:11:22.599Z,95773.19
2023-05-25T07:13:49.060Z,95771.66
2023-05-25T07:16:15.614Z,95775.03
2023-05-25T07:18:42.670Z,95768.66
2023-05-25T07:21:09.330Z,95772.53
2023-05-25T07:23:35.699Z,95763.41
2023-05-25T07:26:04.216Z,95768.31
2023-05-25T07:28:32.034Z,95766.56
2023-05-25T07:30:58.440Z,95770.97
2023-05-25T07:33:24.890Z,95768.69
2023-05-25T07:35:52.016Z,95769.78
2023-05-25T07:38:18.403Z,95777.31
2023-05-25T07:40:46.634Z,95773.72
2023-05-25T07:43:13.048Z,95785.44
2023-05-25T07:45:39.750Z,95784.00
2023-05-25T07:48:07.229Z,95782.75
2023-05-25T07:50:33.694Z,95786.63
2023-05-25T07:53:00.753Z,95794.88
2023-05-25T07:55:27.235Z,95790.06
2023-05-25T07:57:53.580Z,95791.72
2023-05-25T08:00:20.842Z,95796.53
2023-05-25T08:02:47.341Z,95797.72
2023-05-25T08:05:13.967Z,95797.16
2023-05-25T08:07:42.740Z,95788.19
2023-05-25T08:10:10.708Z,95797.66
2023-05-25T08:12:47.945Z,95797.34
2023-05-25T08:15:14.892Z,95802.34
2023-05-25T08:17:41.360Z,95808.34
2023-05-25T08:20:09.781Z,95807.25
2023-05-25T08:22:36.235Z,95808.88
2023-05-25T08:25:03.818Z,95812.50
2023-05-25T08:27:32.363Z,95815.78
2023-05-25T08:30:00.937Z,95812.94
2023-05-25T08:32:27.494Z,95810.91
2023-05-25T08:34:53.925Z,95812.16
2023-05-25T08:37:21.912Z,95802.38
2023-05-25T08:39:51.371Z,95808.66
2023-05-25T08:42:17.869Z,95816.06
2023-05-25T08:44:45.785Z,95816.25
2023-05-25T08:47:12.766Z,95822.66
2023-05-25T08:49:40.559Z,95815.84
2023-05-25T08:52:13.128Z,95816.50
2023-05-25T08:54:43.148Z,95817.53
2023-05-25T08:57:14.695Z,95819.44
2023-05-25T08:59:47.285Z,95826.91
2023-05-25T09:02:25.038Z,95824.34
2023-05-25T09:04:52.075Z,95825.78
2023-05-25T09:07:18.986Z,95832.09
2023-05-25T09:09:47.393Z,95837.25
2023-05-25T09:12:15.030Z,95836.44
2023-05-25T09:14:44.962Z,95834.22
2023-05-25T09:17:12.992Z,95838.41
2023-05-25T09:19:39.388Z,95843.56
2023-05-25T09:22:15.086Z,95845.00
2023-05-25T09:24:43.490Z,95843.50
2023-05-25T09:27:11.681Z,95856.06
2023-05-25T09:29:38.198Z,95846.31
2023-05-25T09:32:05.367Z,95854.69
2023-05-25T09:34:33.451Z,95853.72
2023-05-25T09:37:00.240Z,95863.63
2023-05-25T09:39:27.301Z,95866.63
2023-05-25T09:41:53.785Z,95869.38
2023-05-25T09:44:20.446Z,95862.47
2023-05-25T09:46:46.920Z,95869.44
2023-05-25T09:49:13.810Z,95870.00
2023-05-25T09:51:41.027Z,95871.97
2023-05-25T09:54:10.288Z,95865.69
2023-05-25T09:56:36.899Z,95865.88
2023-05-25T09:59:03.579Z,95862.25
2023-05-25T10:01:31.999Z,95860.66
2023-05-25T10:04:04.404Z,95866.69
2023-05-25T10:06:32.865Z,95863.59
2023-05-25T10:09:01.282Z,95867.47
2023-05-25T10:11:28.933Z,95857.25
2023-05-25T10:13:56.063Z,95865.22
2023-05-25T10:16:26.342Z,95869.53
2023-05-25T10:19:00.805Z,95866.28
2023-05-25T10:21:30.403Z,95864.75
2023-05-25T10:24:05.784Z,95858.50
2023-05-25T10:26:36.371Z,95867.88
2023-05-25T10:29:04.133Z,95869.69
2023-05-25T10:31:33.289Z,95872.25
2023-05-25T10:34:00.804Z,95871.63
2023-05-25T10:36:27.492Z,95868.78
2023-05-25T10:38:54.987Z,95864.78
2023-05-25T10:41:22.417Z,95864.22
2023-05-25T10:43:49.504Z,95860.59
2023-05-25T10:46:18.010Z,95864.09
2023-05-25T10:48:47.976Z,95864.69
2023-05-25T10:51:14.835Z,95856.75
2023-05-25T10:53:44.551Z,95864.88
2023-05-25T10:56:12.608Z,95867.84
2023-05-25T10:58:43.062Z,95869.03
2023-05-25T11:01:11.519Z,95872.47
2023-05-25T11:03:49.110Z,95865.84
2023-05-25T11:06:16.807Z,95869.88
2023-05-25T11:08:51.014Z,95865.00
2023-05-25T11:11:17.608Z,95862.94
2023-05-25T11:13:45.621Z,95859.28
2023-05-25T11:16:23.589Z,95862.81
2023-05-25T11:18:52.388Z,95863.63
2023-05-25T11:21:40.259Z,95860.38
2023-05-25T11:24:13.563Z,95858.16
2023-05-25T11:26:54.169Z,95866.63
2023-05-25T11:29:21.652Z,95854.78
2023-05-25T11:31:52.631Z,95860.66
2023-05-25T11:34:21.449Z,95857.91
2023-05-25T11:36:47.792Z,95855.56
2023-05-25T11:39:22.272Z,95846.50
2023-05-25T11:41:53.898Z,95848.50
2023-05-25T11:44:27.672Z,95843.72
2023-05-25T11:46:56.656Z,95841.44
2023-05-25T11:49:23.982Z,95848.13
2023-05-25T11:51:50.561Z,95840.72
2023-05-25T11:54:24.792Z,95837.50
2023-05-25T11:56:51.449Z,95830.38
2023-05-25T11:59:18.182Z,95833.16
2023-05-25T12:01:55.451Z,95834.56
2023-05-25T12:04:23.979Z,95841.13
2023-05-25T12:06:50.912Z,95825.97
2023-05-25T12:09:21.230Z,95833.31
2023-05-25T12:11:48.139Z,95821.25
2023-05-25T12:14:15.846Z,95826.19
2023-05-25T12:16:42.873Z,95821.97
2023-05-25T12:19:10.884Z,95819.94
2023-05-25T12:21:39.163Z,95824.09
2023-05-25T12:24:06.456Z,95827.13
2023-05-25T12:26:33.105Z,95826.47
2023-05-25T12:29:00.525Z,95821.78
2023-05-25T12:31:28.214Z,95824.34
2023-05-25T12:34:10.719Z,95827.44
2023-05-25T12:36:45.918Z,95824.03
2023-05-25T12:39:13.978Z,95819.75
2023-05-25T12:41:47.446Z,95823.91
2023-05-25T12:44:21.447Z,95823.41
2023-05-25T12:46:48.475Z,95825.41
2023-05-25T12:49:26.033Z,95816.31
2023-05-25T12:51:52.742Z,95812.75
2023-05-25T12:54:36.993Z,95811.00
2023-05-25T12:57:05.037Z,95809.72
2023-05-25T12:59:32.185Z,95805.81
2023-05-25T13:01:58.654Z,95804.91
2023-05-25T13:04:25.810Z,95802.38
2023-05-25T13:06:52.404Z,95809.00
2023-05-25T13:09:18.757Z,95815.44
2023-05-25T13:11:45.212Z,95817.38
2023-05-25T13:14:11.581Z,95806.22
2023-05-25T13:16:43.863Z,95803.38
2023-05-25T13:19:10.292Z,95799.78
2023-05-25T13:21:37.312Z,95805.47
2023-05-25T13:24:03.797Z,95792.34
2023-05-25T13:26:30.139Z,95787.69
2023-05-25T13:28:56.588Z,95793.59
2023-05-25T13:31:25.450Z,95795.91
2023-05-25T13:33:51.976Z,95789.72
2023-05-25T13:36:18.386Z,95788.44
2023-05-25T13:38:45.628Z,95792.47
2023-05-25T13:41:12.199Z,95786.78
2023-05-25T13:43:38.573Z,95791.41
2023-05-25T13:46:04.995Z,95792.19
2023-05-25T13:48:31.434Z,95785.34
2023-05-25T13:51:02.423Z,95786.25
2023-05-25T13:53:28.935Z,95789.72
2023-05-25T13:55:55.983Z,95789.56
2023-05-25T13:58:24.167Z,95795.13
2023-05-25T14:00:50.921Z,95795.44
2023-05-25T14:03:17.380Z,95785.81
2023-05-25T14:05:44.027Z,95789.25
2023-05-25T14:08:11.932Z,95785.06
2023-05-25T14:10:38.523Z,95778.22
2023-05-25T14:13:05.547Z,95785.09
2023-05-25T14:15:31.942Z,95782.81
2023-05-25T14:17:58.406Z,95776.47
2023-05-25T14:20:25.658Z,95778.53
2023-05-25T14:22:52.422Z,95766.28
2023-05-25T14:25:18.999Z,95767.28
2023-05-25T14:27:45.450Z,95772.72
2023-05-25T14:30:12.883Z,95770.69
2023-05-25T14:32:39.318Z,95768.97
2023-05-25T14:35:06.647Z,95771.03
2023-05-25T14:37:33.003Z,95776.69
2023-05-25T14:39:59.935Z,95775.16
2023-05-25T14:42:26.311Z,95769.59
2023-05-25T14:44:52.654Z,95771.47
2023-05-25T14:47:20.166Z,95771.97
2023-05-25T14:49:46.675Z,95776.56
2023-05-25T14:52:13.054Z,95774.94
2023-05-25T14:54:43.968Z,95774.28
2023-05-25T14:57:10.795Z,95761.34
2023-05-25T14:59:37.253Z,95767.84
2023-05-25T15:02:04.099Z,95768.00
2023-05-25T15:04:31.204Z,95760.50
2023-05-25T15:06:57.771Z,95770.84
2023-05-25T15:09:24.198Z,95773.53
2023-05-25T15:11:50.596Z,95771.56
2023-05-25T15:14:16.938Z,95772.38
2023-05-25T15:16:43.559Z,95779.31
2023-05-25T15:19:12.691Z,95773.38
2023-05-25T15:21:40.939Z,95773.50
2023-05-25T15:24:07.355Z,95777.44
2023-05-25T15:26:33.684Z,95772.13
2023-05-25T15:29:00.108Z,95774.41
2023-05-25T15:31:26.493Z,95776.28
2023-05-25T15:33:58.678Z,95765.72
2023-05-25T15:36:25.721Z,95768.88
2023-05-25T15:38:52.885Z,95765.28
2023-05-25T15:41:19.235Z,95776.91
2023-05-25T15:43:50.800Z,95766.75
2023-05-25T15:46:17.265Z,95762.00
2023-05-25T15:48:43.618Z,95766.59
2023-05-25T15:51:10.323Z,95772.47
2023-05-25T15:53:36.669Z,95764.88
2023-05-25T15:56:03.764Z,95762.25
2023-05-25T15:58:33.430Z,95758.47
2023-05-25T16:01:08.319Z,95760.47
2023-05-25T16:03:34.825Z,95765.50
2023-05-25T16:06:01.730Z,95767.84
2023-05-25T16:08:28.061Z,95762.31
2023-05-25T16:10:54.414Z,95761.84
2023-05-25T16:13:21.430Z,95769.03
2023-05-25T16:15:47.845Z,95765.09
2023-05-25T16:18:15.823Z,95763.41
2023-05-25T16:20:43.093Z,95767.81
2023-05-25T16:23:09.536Z,95763.31
2023-05-25T16:25:35.955Z,95766.59
2023-05-25T16:28:02.357Z,95771.16
2023-05-25T16:30:29.368Z,95767.81
2023-05-25T16:32:55.745Z,95767.50
2023-05-25T16:35:22.171Z,95768.03
2023-05-25T16:37:48.545Z,95767.28
2023-05-25T16:40:14.980Z,95767.09
2023-05-25T16:42:41.347Z,95771.34
2023-05-25T16:45:08.655Z,95771.56
2023-05-25T16:47:35.824Z,95774.94
2023-05-25T16:50:02.298Z,95784.19
2023-05-25T16:52:28.639Z,95783.53
2023-05-25T16:54:55.608Z,95777.84
2023-05-25T16:57:29.280Z,95776.91
2023-05-25T16:59:55.763Z,95774.22
2023-05-25T17:02:22.253Z,95774.78
2023-05-25T17:04:49.401Z,95768.13
2023-05-25T17:07:17.662Z,95772.31
2023-05-25T17:09:44.361Z,95761.03
2023-05-25T17:12:10.790Z,95754.13
2023-05-25T17:14:37.321Z,95763.94
2023-05-25T17:17:09.607Z,95758.00
2023-05-25T17:19:35.983Z,95759.41
2023-05-25T17:22:03.006Z,95774.16
2023-05-25T17:24:29.354Z,95769.75
2023-05-25T17:26:55.809Z,95767.34
2023-05-25T17:29:22.181Z,95782.19
2023-05-25T17:31:49.374Z,95774.28
2023-05-25T17:34:15.835Z,95774.72
2023-05-25T17:36:42.534Z,95776.38
2023-05-25T17:39:09.538Z,95776.31
2023-05-25T17:41:35.936Z,95773.53
2023-05-25T17:44:02.410Z,95773.53
2023-05-25T17:46:29.022Z,95776.94
2023-05-25T17:48:55.554Z,95784.38
2023-05-25T17:51:23.481Z,95781.25
2023-05-25T17:53:49.910Z,95783.53
2023-05-25T17:56:17.058Z,95789.25
2023-05-25T17:58:46.593Z,95788.63
2023-05-25T18:01:13.364Z,95782.63
2023-05-25T18:03:40.495Z,95797.50
2023-05-25T18:06:07.002Z,95796.97
2023-05-25T18:08:33.442Z,95803.69
2023-05-25T18:10:59.821Z,95805.09
2023-05-25T18:13:26.881Z,95814.75
2023-05-25T18:15:53.554Z,95822.44
2023-05-25T18:18:22.466Z,95817.06
2023-05-25T18:20:48.965Z,95820.69
2023-05-25T18:23:15.567Z,95825.09
2023-05-25T18:25:42.052Z,95826.56
2023-05-25T18:28:08.518Z,95834.03
2023-05-25T18:30:35.497Z,95834.53
2023-05-25T18:33:01.909Z,95838.41
2023-05-25T18:35:28.317Z,95835.50
2023-05-25T18:37:54.695Z,95840.78
2023-05-25T18:40:21.110Z,95846.88
2023-05-25T18:42:47.480Z,95843.75
2023-05-25T18:45:14.412Z,95842.44
2023-05-25T18:47:41.563Z,95848.69
2023-05-25T18:50:08.740Z,95850.59
2023-05-25T18:52:35.090Z,95849.59
2023-05-25T18:55:01.535Z,95853.06
2023-05-25T18:57:28.236Z,95857.00
2023-05-25T18:59:54.765Z,95854.53
2023-05-25T19:02:21.305Z,95861.59
2023-05-25T19:04:48.516Z,95861.78
2023-05-25T19:07:14.891Z,95869.16
2023-05-25T19:09:41.629Z,95878.41
2023-05-25T19:12:08.613Z,95877.41
2023-05-25T19:14:34.975Z,95875.59
2023-05-25T19:17:01.404Z,95890.53
2023-05-25T19:19:27.809Z,95890.81
2023-05-25T19:21:54.884Z,95892.69
2023-05-25T19:24:21.262Z,95902.94
2023-05-25T19:26:49.654Z,95900.44
2023-05-25T19:29:16.379Z,95906.50
2023-05-25T19:31:42.844Z,95908.75
2023-05-25T19:34:09.264Z,95919.28
2023-05-25T19:36:35.990Z,95914.25
2023-05-25T19:39:04.123Z,95916.78
2023-05-25T19:41:30.502Z,95921.63
2023-05-25T19:43:56.864Z,95921.22
2023-05-25T19:46:23.297Z,95929.22
2023-05-25T19:48:49.978Z,95934.25
2023-05-25T19:51:16.420Z,95936.59
2023-05-25T19:53:42.784Z,95932.31
2023-05-25T19:56:09.814Z,95939.59
2023-05-25T19:58:36.202Z,95943.00
2023-05-25T20:01:02.652Z,95943.00
2023-05-25T20:03:29.349Z,95951.72
2023-05-25T20:05:57.110Z,95954.34
2023-05-25T20:08:24.777Z,95950.28
2023-05-25T20:10:52.062Z,95946.31
2023-05-25T20:13:19.192Z,95948.53
2023-05-25T20:15:45.887Z,95958.34
2023-05-25T20:18:12.729Z,95961.09
2023-05-25T20:20:39.263Z,95958.78
2023-05-25T20:23:05.860Z,95963.75
2023-05-25T20:25:32.245Z,95971.13
2023-05-25T20:27:58.677Z,95972.81
2023-05-25T20:30:26.272Z,95966.72
2023-05-25T20:32:52.720Z,95969.81
2023-05-25T20:35:19.152Z,95963.94
2023-05-25T20:37:45.707Z,95970.38
2023-05-25T20:40:13.007Z,95972.59
2023-05-25T20:42:39.351Z,95978.34
2023-05-25T20:45:06.748Z,95979.97
2023-05-25T20:47:33.945Z,95974.59
2023-05-25T20:50:00.404Z,95978.44
2023-05-25T20:52:26.753Z,95976.59
2023-05-25T20:54:53.090Z,95975.78
2023-05-25T20:57:19.445Z,95971.47
2023-05-25T20:59:45.799Z,95973.22
2023-05-25T21:02:12.244Z,95973.28
2023-05-25T21:04:39.319Z,95976.66
2023-05-25T21:07:05.738Z,95976.72
2023-05-25T21:09:32.090Z,95982.28
2023-05-25T21:11:58.564Z,95977.22
2023-05-25T21:14:26.533Z,95979.09
2023-05-25T21:16:52.941Z,95981.81
2023-05-25T21:19:19.485Z,95977.75
2023-05-25T21:21:46.506Z,95983.09
2023-05-25T21:24:12.847Z,95986.16
2023-05-25T21:26:39.400Z,95984.03
2023-05-25T21:29:06.918Z,95988.31
2023-05-25T21:31:33.331Z,95986.63
2023-05-25T21:34:00.434Z,95990.16
2023-05-25T21:36:27.051Z,95980.13
2023-05-25T21:38:54.058Z,95976.47
2023-05-25T21:41:20.456Z,95981.84
2023-05-25T21:43:47.057Z,95985.56
2023-05-25T21:46:13.422Z,95989.81
2023-05-25T21:48:39.759Z,95988.19
2023-05-25T21:51:06.131Z,95983.09
2023-05-25T21:53:34.687Z,95990.38
2023-05-25T21:56:03.043Z,95989.69
2023-05-25T21:58:29.407Z,95991.94
2023-05-25T22:00:55.784Z,95989.34
2023-05-25T22:03:22.141Z,95979.66
2023-05-25T22:05:48.676Z,95985.69
2023-05-25T22:08:15.062Z,95985.97
2023-05-25T22:10:41.502Z,95992.50
2023-05-25T22:13:08.546Z,95988.75
2023-05-25T22:15:34.928Z,95985.72
2023-05-25T22:18:01.367Z,95988.56
2023-05-25T22:20:27.854Z,95991.91
2023-05-25T22:22:54.193Z,95987.91
2023-05-25T22:25:20.664Z,95991.75
2023-05-25T22:27:46.995Z,95989.94
2023-05-25T22:30:14.288Z,95987.78
2023-05-25T22:32:40.662Z,95991.03
2023-05-25T22:35:07.885Z,95992.97
2023-05-25T22:37:34.257Z,95994.06
2023-05-25T22:40:00.675Z,95996.25
2023-05-25T22:42:27.054Z,95993.53
2023-05-25T22:44:53.401Z,95991.09
2023-05-25T22:47:20.419Z,95992.78
2023-05-25T22:49:46.792Z,95984.66
2023-05-25T22:57:43.567Z,95995.94
2023-05-25T23:00:10.887Z,95984.78
2023-05-25T23:02:37.309Z,95982.63
2023-05-25T23:05:05.602Z,95983.72
2023-05-25T23:07:32.157Z,95983.50
2023-05-25T23:09:58.485Z,95984.88
2023-05-25T23:12:24.939Z,95986.22
2023-05-25T23:14:52.716Z,95987.31
2023-05-25T23:17:19.116Z,95983.00
2023-05-25T23:19:45.525Z,95979.25
2023-05-25T23:22:11.854Z,95980.59
2023-05-25T23:24:38.307Z,95977.84
2023-05-25T23:27:06.084Z,95978.13
2023-05-25T23:29:32.490Z,95979.47
2023-05-25T23:31:59.668Z,95979.50
2023-05-25T23:34:26.122Z,95967.78
2023-05-25T23:36:53.353Z,95971.03
2023-05-25T23:39:19.717Z,95964.50
2023-05-25T23:41:46.097Z,95970.50
2023-05-25T23:44:12.545Z,95973.25
2023-05-25T23:46:38.958Z,95971.09
2023-05-25T23:49:06.020Z,95967.50
2023-05-25T23:51:32.516Z,95970.50
2023-05-25T23:53:58.871Z,95968.63
2023-05-25T23:56:27.103Z,95969.19
2023-05-25T23:58:53.609Z,95979.03
